Flight Track Log - Related Links

Times and Time Zones

All times are in EDT time to prevent confusion due to time zone crossing. See the N888FM flight status page for this flight to view local times or setup timezone preferences in your user account.

Time Position Orientation Groundspeed Altitude Reporting Facility
EDT Latitude Longitude Course Direction KTS MPH feet Rate Location/Type
Tue 12:14:05 AM 38.9333 -77.5000 333° Northwest 195 224 2,500  Level Potomac TRACON
Tue 12:15:05 AM 38.9833 -77.5333 333° Northwest 231 266 3,900 1,571 Climbing Potomac TRACON
Tue 12:16:11 AM 39.0500 -77.5500 349° North 234 269 5,800 1,444 Climbing Potomac TRACON
Tue 12:17:47 AM 39.1367 -77.5772 346° North 235 270 7,800 1,277 Climbing Washington Center
Tue 12:18:46 AM 39.1989 -77.5975 346° North 235 270 9,100 1,231 Climbing Washington Center
Tue 12:19:44 AM 39.2608 -77.6314 337° Northwest 235 270 10,200 1,150 Climbing Washington Center
Tue 12:20:46 AM 39.3211 -77.6467 349° North 235 270 11,400 1,150 Climbing Washington Center
Tue 12:21:44 AM 39.3881 -77.6350 North 230 265 12,500 1,036 Climbing Washington Center
Tue 12:24:03 AM 39.5483 -77.6075 North 245 282 14,800 758 Climbing New York Center
Tue 12:25:02 AM 39.6144 -77.5842 15° North 245 282 15,000 103 Climbing New York Center
Tue 12:26:00 AM 39.6658 -77.5244 42° Northeast 255 293 15,000  Level New York Center
Tue 12:27:02 AM 39.7322 -77.4578 38° Northeast 269 310 15,000  Level New York Center
Tue 12:28:02 AM 39.7853 -77.4008 40° Northeast 269 310 15,000  Level New York Center
Tue 12:29:00 AM 39.8542 -77.3289 39° Northeast 277 319 15,000  Level New York Center
Tue 12:30:02 AM 39.9094 -77.2717 38° Northeast 283 326 15,000  Level New York Center
Tue 12:31:00 AM 39.9758 -77.2019 39° Northeast 283 326 15,000  Level New York Center
Tue 12:32:02 AM 40.0311 -77.1419 40° Northeast 278 320 15,000  Level New York Center
Tue 12:33:02 AM 40.0972 -77.0750 38° Northeast 278 320 15,000  Level New York Center
Tue 12:34:02 AM 40.1547 -77.0147 39° Northeast 278 320 15,000  Level New York Center
Tue 12:35:00 AM 40.2208 -76.9447 39° Northeast 278 320 15,000  Level New York Center
Tue 12:36:00 AM 40.2786 -76.8789 41° Northeast 278 320 15,000  Level New York Center
Tue 12:37:01 AM 40.3403 -76.8136 39° Northeast 278 320 15,000  Level New York Center
Tue 12:38:00 AM 40.3956 -76.7531 40° Northeast 278 320 15,000  Level New York Center
Tue 12:39:00 AM 40.4614 -76.6850 38° Northeast 278 320 15,000  Level New York Center
Tue 12:40:01 AM 40.5231 -76.6194 39° Northeast 278 320 15,000  Level New York Center
Tue 12:41:03 AM 40.5825 -76.5533 40° Northeast 278 320 15,000  Level New York Center
Tue 12:42:02 AM 40.6442 -76.4875 39° Northeast 278 320 15,000  Level New York Center
Tue 12:43:00 AM 40.6989 -76.4292 39° Northeast 278 320 15,000  Level New York Center
Tue 12:44:02 AM 40.7606 -76.3628 39° Northeast 278 320 15,000 -246 Level New York Center
Tue 12:45:02 AM 40.8264 -76.2886 40° Northeast 278 320 14,500 -1,017 Descending New York Center
Tue 12:46:00 AM 40.8900 -76.2225 38° Northeast 278 320 13,000 -1,525 Descending New York Center
Tue 12:47:00 AM 40.9469 -76.1611 39° Northeast 278 320 11,500 -1,500 Descending New York Center
Tue 12:48:00 AM 40.9911 -76.1069 43° Northeast 241 277 10,000 -1,700 Descending New York Center
Tue 12:49:00 AM 41.0306 -76.0633 40° Northeast 204 235 8,100 -1,884 Descending New York Center
Tue 12:50:01 AM 41.0725 -76.0086 45° Northeast 197 227 6,200 -1,750 Descending New York Center
Tue 12:51:00 AM 41.1144 -75.9542 44° Northeast 197 227 4,600 -1,160 Descending New York Center
Tue 12:52:00 AM 41.1542 -75.9047 43° Northeast 197 227 3,900 -295 Descending New York Center
Tue 12:53:02 AM 41.1897 -75.8578 45° Northeast 191 220 4,000 -248 Climbing New York Center
Tue 12:54:01 AM 41.2222 -75.8272 35° Northeast 167 192 3,400 -700 Descending New York Center
Tue 12:55:02 AM 41.2567 -75.7967 34° Northeast 149 171 2,600 -756 Descending New York Center
Tue 12:56:00 AM 41.2892 -75.7686 33° Northeast 144 166 1,900 -655 Descending New York Center
Tue 12:57:01 AM 41.3239 -75.7381 33° Northeast 144 166 1,300 -390 Descending New York Center
Tue 12:58:03 AM 41.3561 -75.7128 30° Northeast 144 166 1,100 2,874 Descending New York Center
Tue 12:59:00 AM 41.3883 -75.6875 30° Northeast 144 166 7,000 6,211 Climbing New York Center

Login

Don't have an account? Register now (free) for customized features, flight alerts, and more!